createdAt,value
2022-12-18T00:01:07.150Z,102797.00
2022-12-18T00:03:43.496Z,102793.00
2022-12-18T00:06:10.321Z,102803.00
2022-12-18T00:08:36.889Z,102795.00
2022-12-18T00:11:08.060Z,102800.00
2022-12-18T00:13:35.797Z,102798.00
2022-12-18T00:16:08.434Z,102806.00
2022-12-18T00:18:35.324Z,102797.00
2022-12-18T00:21:04.685Z,102798.00
2022-12-18T00:23:32.255Z,102793.00
2022-12-18T00:26:09.170Z,102804.00
2022-12-18T00:28:35.681Z,102806.00
2022-12-18T00:31:07.104Z,102798.00
2022-12-18T00:33:33.941Z,102796.00
2022-12-18T00:36:10.582Z,102801.00
2022-12-18T00:38:37.598Z,102792.00
2022-12-18T00:41:06.666Z,102795.00
2022-12-18T00:43:36.762Z,102801.00
2022-12-18T00:46:04.084Z,102809.00
2022-12-18T00:48:32.045Z,102804.00
2022-12-18T00:50:58.489Z,102801.00
2022-12-18T00:53:24.931Z,102794.00
2022-12-18T00:55:51.368Z,102796.00
2022-12-18T00:58:18.326Z,102799.00
2022-12-18T01:00:45.067Z,102790.00
2022-12-18T01:03:15.343Z,102796.00
2022-12-18T01:05:43.204Z,102796.00
2022-12-18T01:08:10.068Z,102800.00
2022-12-18T01:10:36.674Z,102812.00
2022-12-18T01:13:03.210Z,102811.00
2022-12-18T01:15:29.746Z,102800.00
2022-12-18T01:17:56.172Z,102806.00
2022-12-18T01:20:23.007Z,102811.00
2022-12-18T01:22:49.481Z,102820.00
2022-12-18T01:25:15.928Z,102837.00
2022-12-18T01:27:42.543Z,102833.00
2022-12-18T01:30:09.693Z,102831.00
2022-12-18T01:32:36.469Z,102834.00
2022-12-18T01:35:03.874Z,102832.00
2022-12-18T01:37:30.345Z,102826.00
2022-12-18T01:39:56.920Z,102829.00
2022-12-18T01:42:23.587Z,102831.00
2022-12-18T01:45:06.297Z,102838.00
2022-12-18T01:47:44.963Z,102836.00
2022-12-18T01:50:17.394Z,102840.00
2022-12-18T01:52:50.923Z,102831.00
2022-12-18T01:55:19.875Z,102842.00
2022-12-18T01:57:47.527Z,102849.00
2022-12-18T02:00:18.107Z,102851.00
2022-12-18T02:02:46.594Z,102846.00
2022-12-18T02:05:17.182Z,102853.00
2022-12-18T02:08:14.821Z,102841.00
2022-12-18T02:10:59.925Z,102841.00
2022-12-18T02:13:49.596Z,102839.00
2022-12-18T02:16:42.368Z,102850.00
2022-12-18T02:19:27.663Z,102850.00
2022-12-18T02:22:04.130Z,102842.00
2022-12-18T02:25:02.252Z,102845.00
2022-12-18T02:27:31.894Z,102848.00
2022-12-18T02:30:01.155Z,102855.00
2022-12-18T02:32:41.691Z,102859.00
2022-12-18T02:35:13.921Z,102862.00
2022-12-18T02:37:41.664Z,102860.00
2022-12-18T02:40:17.860Z,102859.00
2022-12-18T02:42:44.342Z,102859.00
2022-12-18T02:45:11.279Z,102860.00
2022-12-18T02:47:40.403Z,102867.00
2022-12-18T02:50:07.047Z,102869.00
2022-12-18T02:52:43.639Z,102867.00
2022-12-18T02:55:22.268Z,102861.00
2022-12-18T02:57:51.374Z,102870.00
2022-12-18T03:00:25.240Z,102866.00
2022-12-18T03:03:00.725Z,102869.00
2022-12-18T03:05:34.913Z,102863.00
2022-12-18T03:08:08.521Z,102865.00
2022-12-18T03:10:40.348Z,102859.00
2022-12-18T03:13:39.155Z,102863.00
2022-12-18T03:16:08.428Z,102852.00
2022-12-18T03:18:40.181Z,102866.00
2022-12-18T03:21:08.839Z,102867.00
2022-12-18T03:23:45.225Z,102858.00
2022-12-18T03:26:16.389Z,102856.00
2022-12-18T03:28:47.577Z,102855.00
2022-12-18T03:31:16.930Z,102860.00
2022-12-18T03:33:51.845Z,102862.00
2022-12-18T03:36:18.836Z,102855.00
2022-12-18T03:38:45.264Z,102861.00
2022-12-18T03:41:31.021Z,102868.00
2022-12-18T03:44:19.364Z,102864.00
2022-12-18T03:46:59.521Z,102868.00
2022-12-18T03:49:51.643Z,102864.00
2022-12-18T03:52:24.851Z,102866.00
2022-12-18T03:54:52.502Z,102874.00
2022-12-18T03:57:26.121Z,102873.00
2022-12-18T03:59:58.318Z,102866.00
2022-12-18T04:02:26.362Z,102870.00
2022-12-18T04:04:57.773Z,102864.00
2022-12-18T04:07:25.030Z,102876.00
2022-12-18T04:09:55.975Z,102872.00
2022-12-18T04:12:26.048Z,102883.00
2022-12-18T04:14:52.901Z,102884.00
2022-12-18T04:17:19.503Z,102886.00
2022-12-18T04:19:45.995Z,102874.00
2022-12-18T04:22:12.774Z,102867.00
2022-12-18T04:24:39.555Z,102870.00
2022-12-18T04:27:06.019Z,102880.00
2022-12-18T04:29:33.951Z,102884.00
2022-12-18T04:32:00.580Z,102883.00
2022-12-18T04:34:27.682Z,102896.00
2022-12-18T04:36:54.138Z,102887.00
2022-12-18T04:39:20.668Z,102903.00
2022-12-18T04:41:47.203Z,102889.00
2022-12-18T04:44:14.510Z,102883.00
2022-12-18T04:46:42.376Z,102889.00
2022-12-18T04:49:08.895Z,102886.00
2022-12-18T04:51:35.380Z,102882.00
2022-12-18T04:54:04.600Z,102884.00
2022-12-18T04:56:33.106Z,102908.00
2022-12-18T04:58:59.582Z,102910.00
2022-12-18T05:01:32.540Z,102913.00
2022-12-18T05:04:01.051Z,102921.00
2022-12-18T05:06:27.574Z,102909.00
2022-12-18T05:08:54.028Z,102906.00
2022-12-18T05:11:20.742Z,102907.00
2022-12-18T05:13:47.196Z,102916.00
2022-12-18T05:16:14.909Z,102918.00
2022-12-18T05:18:42.296Z,102912.00
2022-12-18T05:21:08.869Z,102920.00
2022-12-18T05:23:35.906Z,102931.00
2022-12-18T05:26:04.121Z,102942.00
2022-12-18T05:28:32.523Z,102942.00
2022-12-18T05:31:01.185Z,102948.00
2022-12-18T05:33:30.963Z,102936.00
2022-12-18T05:36:05.889Z,102947.00
2022-12-18T05:38:33.735Z,102935.00
2022-12-18T05:41:07.845Z,102935.00
2022-12-18T05:43:40.026Z,102925.00
2022-12-18T05:46:14.117Z,102934.00
2022-12-18T05:48:40.798Z,102947.00
2022-12-18T05:51:09.716Z,102943.00
2022-12-18T05:53:38.334Z,102945.00
2022-12-18T05:56:06.846Z,102943.00
2022-12-18T05:58:33.901Z,102949.00
2022-12-18T06:01:13.602Z,102947.00
2022-12-18T06:03:40.666Z,102953.00
2022-12-18T06:06:22.288Z,102962.00
2022-12-18T06:08:49.242Z,102945.00
2022-12-18T06:11:21.514Z,102946.00
2022-12-18T06:13:54.778Z,102948.00
2022-12-18T06:16:24.571Z,102963.00
2022-12-18T06:18:51.056Z,102982.00
2022-12-18T06:21:17.845Z,102960.00
2022-12-18T06:23:44.536Z,102966.00
2022-12-18T06:26:12.869Z,102962.00
2022-12-18T06:28:39.334Z,102967.00
2022-12-18T06:31:06.899Z,102982.00
2022-12-18T06:33:34.397Z,102979.00
2022-12-18T06:36:03.156Z,102982.00
2022-12-18T06:38:29.704Z,102996.00
2022-12-18T06:40:56.232Z,103004.00
2022-12-18T06:43:22.766Z,102999.00
2022-12-18T06:45:53.619Z,103009.00
2022-12-18T06:48:20.899Z,103001.00
2022-12-18T06:50:47.815Z,103015.00
2022-12-18T06:53:14.738Z,103018.00
2022-12-18T06:55:41.551Z,103010.00
2022-12-18T06:58:08.209Z,103018.00
2022-12-18T07:00:35.270Z,103008.00
2022-12-18T07:03:01.955Z,102996.00
2022-12-18T07:05:28.436Z,102998.00
2022-12-18T07:07:54.951Z,102993.00
2022-12-18T07:10:21.382Z,103001.00
2022-12-18T07:12:47.849Z,103000.00
2022-12-18T07:15:15.627Z,102998.00
2022-12-18T07:17:42.154Z,103008.00
2022-12-18T07:20:09.308Z,103007.00
2022-12-18T07:22:36.150Z,103017.00
2022-12-18T07:25:02.627Z,103014.00
2022-12-18T07:27:29.249Z,103010.00
2022-12-18T07:29:56.093Z,103016.00
2022-12-18T07:32:22.532Z,103013.00
2022-12-18T07:34:49.084Z,103007.00
2022-12-18T07:37:15.540Z,103003.00
2022-12-18T07:39:42.000Z,103004.00
2022-12-18T07:42:27.341Z,103010.00
2022-12-18T07:44:55.871Z,103010.00
2022-12-18T07:47:22.975Z,103006.00
2022-12-18T07:49:50.899Z,103001.00
2022-12-18T07:52:20.329Z,103009.00
2022-12-18T07:54:50.975Z,103003.00
2022-12-18T07:57:41.699Z,103009.00
2022-12-18T08:00:05.314Z,103019.00
2022-12-18T08:02:32.945Z,103010.00
2022-12-18T08:04:59.569Z,103026.00
2022-12-18T08:07:26.125Z,103022.00
2022-12-18T08:09:52.571Z,103034.00
2022-12-18T08:12:19.063Z,103025.00
2022-12-18T08:14:45.836Z,103029.00
2022-12-18T08:17:12.578Z,103043.00
2022-12-18T08:19:39.029Z,103033.00
2022-12-18T08:22:05.701Z,103034.00
2022-12-18T08:24:43.771Z,103043.00
2022-12-18T08:27:28.365Z,103036.00
2022-12-18T08:29:56.356Z,103041.00
2022-12-18T08:32:22.978Z,103028.00
2022-12-18T08:34:49.471Z,103040.00
2022-12-18T08:37:15.912Z,103033.00
2022-12-18T08:39:42.519Z,103042.00
2022-12-18T08:42:30.166Z,103047.00
2022-12-18T08:44:56.628Z,103051.00
2022-12-18T08:47:24.661Z,103038.00
2022-12-18T08:49:51.346Z,103050.00
2022-12-18T08:52:17.931Z,103055.00
2022-12-18T08:54:44.438Z,103063.00
2022-12-18T08:57:11.357Z,103066.00
2022-12-18T08:59:37.888Z,103062.00
2022-12-18T09:02:04.478Z,103063.00
2022-12-18T09:04:34.272Z,103060.00
2022-12-18T09:07:01.245Z,103062.00
2022-12-18T09:09:27.851Z,103060.00
2022-12-18T09:11:54.351Z,103065.00
2022-12-18T09:14:20.804Z,103081.00
2022-12-18T09:16:47.275Z,103067.00
2022-12-18T09:19:13.935Z,103061.00
2022-12-18T09:21:46.138Z,103068.00
2022-12-18T09:24:17.442Z,103071.00
2022-12-18T09:26:47.178Z,103068.00
2022-12-18T09:29:14.185Z,103067.00
2022-12-18T09:31:41.762Z,103073.00
2022-12-18T09:34:08.559Z,103076.00
2022-12-18T09:36:35.412Z,103063.00
2022-12-18T09:39:07.571Z,103064.00
2022-12-18T09:41:40.265Z,103062.00
2022-12-18T09:44:21.026Z,103066.00
2022-12-18T09:47:07.760Z,103055.00
2022-12-18T09:49:40.358Z,103051.00
2022-12-18T09:52:15.452Z,103043.00
2022-12-18T09:54:44.647Z,103036.00
2022-12-18T09:57:16.645Z,103039.00
2022-12-18T09:59:47.422Z,103028.00
2022-12-18T10:02:22.239Z,103020.00
2022-12-18T10:05:14.092Z,103012.00
2022-12-18T10:08:05.506Z,103017.00
2022-12-18T10:10:44.270Z,103007.00
2022-12-18T10:13:28.282Z,103020.00
2022-12-18T10:16:06.168Z,103023.00
2022-12-18T10:18:54.021Z,103014.00
2022-12-18T10:21:27.698Z,103019.00
2022-12-18T10:24:05.913Z,103017.00
2022-12-18T10:26:33.105Z,103020.00
2022-12-18T10:29:05.356Z,103024.00
2022-12-18T10:31:32.350Z,103001.00
2022-12-18T10:33:59.134Z,103007.00
2022-12-18T10:36:26.266Z,103000.00
2022-12-18T10:38:54.835Z,102992.00
2022-12-18T10:41:26.890Z,102991.00
2022-12-18T10:44:16.116Z,102992.00
2022-12-18T10:46:44.456Z,102985.00
2022-12-18T10:49:22.419Z,102979.00
2022-12-18T10:51:49.270Z,102979.00
2022-12-18T10:54:22.453Z,102982.00
2022-12-18T10:56:49.478Z,102972.00
2022-12-18T10:59:18.521Z,102971.00
2022-12-18T11:01:56.949Z,102980.00
2022-12-18T11:04:23.407Z,102970.00
2022-12-18T11:07:01.161Z,102976.00
2022-12-18T11:09:39.761Z,102967.00
2022-12-18T11:12:07.110Z,102980.00
2022-12-18T11:14:46.861Z,102974.00
2022-12-18T11:17:35.789Z,102985.00
2022-12-18T11:20:06.026Z,102971.00
2022-12-18T11:22:36.275Z,102980.00
2022-12-18T11:25:32.358Z,102971.00
2022-12-18T11:28:01.159Z,102968.00
2022-12-18T11:30:34.856Z,102960.00
2022-12-18T11:33:08.162Z,102966.00
2022-12-18T11:35:58.655Z,102961.00
2022-12-18T11:38:49.408Z,102967.00
2022-12-18T11:41:49.497Z,102963.00
2022-12-18T11:44:32.607Z,102980.00
2022-12-18T11:47:10.700Z,102993.00
2022-12-18T11:49:37.270Z,102985.00
2022-12-18T11:52:13.908Z,103007.00
2022-12-18T11:54:42.751Z,103004.00
2022-12-18T11:57:30.923Z,103007.00
2022-12-18T12:00:23.002Z,103006.00
2022-12-18T12:03:08.105Z,103002.00
2022-12-18T12:05:58.141Z,102997.00
2022-12-18T12:08:36.339Z,103007.00
2022-12-18T12:11:23.696Z,103016.00
2022-12-18T12:14:15.578Z,103008.00
2022-12-18T12:16:58.433Z,103021.00
2022-12-18T12:19:32.417Z,103014.00
2022-12-18T12:22:13.221Z,103017.00
2022-12-18T12:25:00.324Z,103011.00
2022-12-18T12:27:36.271Z,103006.00
2022-12-18T12:30:12.529Z,103011.00
2022-12-18T12:33:05.742Z,103020.00
2022-12-18T12:35:47.211Z,103019.00
2022-12-18T12:38:27.447Z,103020.00
2022-12-18T12:41:05.140Z,103018.00
2022-12-18T12:43:50.280Z,103011.00
2022-12-18T12:46:22.824Z,103017.00
2022-12-18T12:48:54.641Z,102998.00
2022-12-18T12:51:47.099Z,102980.00
2022-12-18T12:54:20.447Z,102963.00
2022-12-18T12:57:07.071Z,102964.00
2022-12-18T13:00:01.207Z,102961.00
2022-12-18T13:02:54.616Z,102960.00
2022-12-18T13:05:29.891Z,102966.00
2022-12-18T13:08:09.742Z,102970.00
2022-12-18T13:10:40.573Z,102971.00
2022-12-18T13:13:23.140Z,102973.00
2022-12-18T13:16:08.135Z,102976.00
2022-12-18T13:18:36.116Z,102967.00
2022-12-18T13:21:13.008Z,102978.00
2022-12-18T13:23:41.796Z,102977.00
2022-12-18T13:26:11.784Z,102971.00
2022-12-18T13:28:47.523Z,102977.00
2022-12-18T13:31:42.678Z,102965.00
2022-12-18T13:37:33.370Z,102971.00
2022-12-18T13:39:59.941Z,102953.00
2022-12-18T13:42:59.648Z,102948.00
2022-12-18T13:45:46.888Z,102949.00
2022-12-18T13:48:19.353Z,102940.00
2022-12-18T13:50:54.538Z,102935.00
2022-12-18T13:53:25.919Z,102939.00
2022-12-18T13:55:52.630Z,102951.00
2022-12-18T13:58:19.137Z,102949.00
2022-12-18T14:00:45.984Z,102924.00
2022-12-18T14:03:29.154Z,102925.00
2022-12-18T14:06:09.995Z,102934.00
2022-12-18T14:09:00.849Z,102929.00
2022-12-18T14:11:27.483Z,102927.00
2022-12-18T14:13:55.346Z,102941.00
2022-12-18T14:16:25.140Z,102929.00
2022-12-18T14:19:00.812Z,102930.00
2022-12-18T14:21:51.424Z,102914.00
2022-12-18T14:24:34.942Z,102911.00
2022-12-18T14:27:20.555Z,102904.00
2022-12-18T14:29:47.020Z,102897.00
2022-12-18T14:32:21.700Z,102883.00
2022-12-18T14:34:54.858Z,102889.00
2022-12-18T14:37:26.948Z,102881.00
2022-12-18T14:40:11.099Z,102880.00
2022-12-18T14:42:39.527Z,102874.00
2022-12-18T14:45:42.652Z,102881.00
2022-12-18T14:48:13.007Z,102875.00
2022-12-18T14:50:41.409Z,102873.00
2022-12-18T14:53:22.199Z,102865.00
2022-12-18T14:55:49.699Z,102875.00
2022-12-18T14:58:18.465Z,102877.00
2022-12-18T15:00:48.220Z,102890.00
2022-12-18T15:03:21.002Z,102905.00
2022-12-18T15:05:48.755Z,102898.00
2022-12-18T15:08:30.065Z,102903.00
2022-12-18T15:10:57.975Z,102904.00
2022-12-18T15:13:25.707Z,102895.00
2022-12-18T15:15:53.885Z,102897.00
2022-12-18T15:18:24.600Z,102891.00
2022-12-18T15:20:57.779Z,102905.00
2022-12-18T15:23:28.615Z,102897.00
2022-12-18T15:26:15.436Z,102895.00
2022-12-18T15:28:53.363Z,102875.00
2022-12-18T15:31:31.942Z,102880.00
2022-12-18T15:33:59.980Z,102901.00
2022-12-18T15:36:31.769Z,102902.00
2022-12-18T15:39:04.587Z,102912.00
2022-12-18T15:41:35.260Z,102904.00
2022-12-18T15:44:03.313Z,102912.00
2022-12-18T15:46:31.784Z,102919.00
2022-12-18T15:49:02.349Z,102913.00
2022-12-18T15:51:34.998Z,102904.00
2022-12-18T15:54:07.339Z,102912.00
2022-12-18T15:56:52.921Z,102904.00
2022-12-18T15:59:21.328Z,102906.00
2022-12-18T16:01:50.703Z,102890.00
2022-12-18T16:04:21.360Z,102890.00
2022-12-18T16:07:13.947Z,102901.00
2022-12-18T16:09:34.904Z,102895.00
2022-12-18T16:12:01.594Z,102897.00
2022-12-18T16:14:30.822Z,102880.00
2022-12-18T16:17:03.682Z,102882.00
2022-12-18T16:19:30.813Z,102885.00
2022-12-18T16:21:59.273Z,102877.00
2022-12-18T16:24:30.821Z,102885.00
2022-12-18T16:27:01.240Z,102901.00
2022-12-18T16:29:29.072Z,102883.00
2022-12-18T16:31:58.221Z,102886.00
2022-12-18T16:34:29.869Z,102882.00
2022-12-18T16:37:05.604Z,102867.00
2022-12-18T16:39:36.777Z,102859.00
2022-12-18T16:42:13.564Z,102864.00
2022-12-18T16:44:40.090Z,102863.00
2022-12-18T16:47:06.631Z,102868.00
2022-12-18T16:49:35.673Z,102882.00
2022-12-18T16:52:02.104Z,102874.00
2022-12-18T16:54:30.601Z,102877.00
2022-12-18T16:56:57.761Z,102877.00
2022-12-18T16:59:24.304Z,102883.00
2022-12-18T17:01:51.082Z,102877.00
2022-12-18T17:04:17.702Z,102876.00
2022-12-18T17:06:45.923Z,102872.00
2022-12-18T17:09:15.466Z,102880.00
2022-12-18T17:11:42.185Z,102886.00
2022-12-18T17:14:11.318Z,102874.00
2022-12-18T17:16:40.463Z,102871.00
2022-12-18T17:19:09.680Z,102884.00
2022-12-18T17:21:40.560Z,102884.00
2022-12-18T17:24:08.359Z,102876.00
2022-12-18T17:26:35.037Z,102873.00
2022-12-18T17:29:01.610Z,102866.00
2022-12-18T17:31:30.011Z,102869.00
2022-12-18T17:33:58.115Z,102878.00
2022-12-18T17:36:28.570Z,102869.00
2022-12-18T17:39:01.508Z,102873.00
2022-12-18T17:41:29.168Z,102858.00
2022-12-18T17:44:01.350Z,102862.00
2022-12-18T17:46:30.183Z,102859.00
2022-12-18T17:48:58.326Z,102854.00
2022-12-18T17:51:26.524Z,102848.00
2022-12-18T17:53:53.399Z,102847.00
2022-12-18T17:56:23.500Z,102846.00
2022-12-18T17:58:51.385Z,102839.00
2022-12-18T18:01:21.529Z,102830.00
2022-12-18T18:03:49.361Z,102816.00
2022-12-18T18:06:20.329Z,102831.00
2022-12-18T18:08:46.823Z,102826.00
2022-12-18T18:11:34.732Z,102820.00
2022-12-18T18:14:02.427Z,102813.00
2022-12-18T18:16:34.500Z,102815.00
2022-12-18T18:19:03.082Z,102810.00
2022-12-18T18:21:32.962Z,102804.00
2022-12-18T18:24:03.695Z,102810.00
2022-12-18T18:26:35.131Z,102803.00
2022-12-18T18:29:04.811Z,102794.00
2022-12-18T18:31:35.259Z,102785.00
2022-12-18T18:34:07.471Z,102791.00
2022-12-18T18:36:34.774Z,102784.00
2022-12-18T18:39:02.276Z,102778.00
2022-12-18T18:41:30.188Z,102789.00
2022-12-18T18:43:58.084Z,102786.00
2022-12-18T18:46:27.083Z,102780.00
2022-12-18T18:48:54.997Z,102774.00
2022-12-18T18:51:23.774Z,102770.00
2022-12-18T18:53:52.557Z,102759.00
2022-12-18T18:59:08.623Z,102740.00
2022-12-18T19:01:35.289Z,102744.00
2022-12-18T19:04:01.904Z,102737.00
2022-12-18T19:06:29.242Z,102734.00
2022-12-18T19:08:57.075Z,102730.00
2022-12-18T19:11:43.988Z,102716.00
2022-12-18T19:14:13.115Z,102723.00
2022-12-18T19:16:41.124Z,102710.00
2022-12-18T19:19:08.359Z,102710.00
2022-12-18T19:21:35.532Z,102715.00
2022-12-18T19:24:02.656Z,102717.00
2022-12-18T19:26:29.728Z,102713.00
2022-12-18T19:29:11.599Z,102710.00
2022-12-18T19:31:41.667Z,102710.00
2022-12-18T19:34:08.309Z,102710.00
2022-12-18T19:36:36.901Z,102709.00
2022-12-18T19:39:16.765Z,102721.00
2022-12-18T19:41:49.110Z,102719.00
2022-12-18T19:44:16.642Z,102730.00
2022-12-18T19:46:46.570Z,102736.00
2022-12-18T19:49:17.596Z,102731.00
2022-12-18T19:51:45.492Z,102740.00
2022-12-18T19:54:17.508Z,102738.00
2022-12-18T19:56:45.193Z,102738.00
2022-12-18T19:59:12.569Z,102723.00
2022-12-18T20:01:39.161Z,102725.00
2022-12-18T20:04:06.175Z,102716.00
2022-12-18T20:06:53.620Z,102705.00
2022-12-18T20:09:23.477Z,102699.00
2022-12-18T20:11:50.448Z,102685.00
2022-12-18T20:14:22.667Z,102675.00
2022-12-18T20:16:53.083Z,102681.00
2022-12-18T20:19:20.573Z,102676.00
2022-12-18T20:21:47.411Z,102683.00
2022-12-18T20:24:17.283Z,102674.00
2022-12-18T20:26:46.854Z,102671.00
2022-12-18T20:29:13.806Z,102677.00
2022-12-18T20:31:42.314Z,102682.00
2022-12-18T20:34:09.315Z,102666.00
2022-12-18T20:36:37.639Z,102663.00
2022-12-18T20:39:06.443Z,102655.00
2022-12-18T20:41:38.350Z,102664.00
2022-12-18T20:44:14.032Z,102654.00
2022-12-18T20:46:55.407Z,102657.00
2022-12-18T20:49:23.013Z,102659.00
2022-12-18T20:51:54.827Z,102663.00
2022-12-18T20:54:24.602Z,102672.00
2022-12-18T20:57:01.510Z,102676.00
2022-12-18T20:59:28.134Z,102658.00
2022-12-18T21:01:58.559Z,102659.00
2022-12-18T21:04:26.045Z,102665.00
2022-12-18T21:07:00.805Z,102658.00
2022-12-18T21:09:37.942Z,102646.00
2022-12-18T21:12:25.887Z,102643.00
2022-12-18T21:14:52.725Z,102646.00
2022-12-18T21:17:19.304Z,102648.00
2022-12-18T21:19:46.212Z,102643.00
2022-12-18T21:22:13.197Z,102635.00
2022-12-18T21:24:39.863Z,102635.00
2022-12-18T21:27:06.565Z,102640.00
2022-12-18T21:29:34.998Z,102648.00
2022-12-18T21:32:02.243Z,102645.00
2022-12-18T21:34:31.203Z,102635.00
2022-12-18T21:36:59.953Z,102643.00
2022-12-18T21:39:28.728Z,102653.00
2022-12-18T21:42:16.971Z,102641.00
2022-12-18T21:44:44.740Z,102650.00
2022-12-18T21:47:22.163Z,102656.00
2022-12-18T21:49:56.463Z,102663.00
2022-12-18T21:52:32.241Z,102653.00
2022-12-18T21:55:07.835Z,102649.00
2022-12-18T21:57:35.746Z,102654.00
2022-12-18T22:00:03.360Z,102634.00
2022-12-18T22:02:32.371Z,102632.00
2022-12-18T22:04:59.176Z,102639.00
2022-12-18T22:07:28.955Z,102626.00
2022-12-18T22:09:55.466Z,102616.00
2022-12-18T22:12:35.838Z,102612.00
2022-12-18T22:15:11.597Z,102604.00
2022-12-18T22:17:39.945Z,102597.00
2022-12-18T22:20:10.579Z,102586.00
2022-12-18T22:22:37.419Z,102585.00
2022-12-18T22:25:04.299Z,102583.00
2022-12-18T22:27:30.735Z,102580.00
2022-12-18T22:30:06.352Z,102593.00
2022-12-18T22:32:33.924Z,102588.00
2022-12-18T22:35:07.914Z,102580.00
2022-12-18T22:37:35.851Z,102575.00
2022-12-18T22:40:05.154Z,102567.00
2022-12-18T22:42:32.708Z,102563.00
2022-12-18T22:45:00.570Z,102563.00
2022-12-18T22:47:30.960Z,102555.00
2022-12-18T22:49:59.097Z,102551.00
2022-12-18T22:52:25.891Z,102550.00
2022-12-18T22:54:54.496Z,102550.00
2022-12-18T22:57:22.915Z,102541.00
2022-12-18T22:59:50.160Z,102549.00
2022-12-18T23:02:21.184Z,102535.00
2022-12-18T23:04:48.062Z,102517.00
2022-12-18T23:07:15.280Z,102532.00
2022-12-18T23:09:41.742Z,102517.00
2022-12-18T23:12:14.214Z,102508.00
2022-12-18T23:14:41.094Z,102502.00
2022-12-18T23:17:07.881Z,102509.00
2022-12-18T23:19:34.350Z,102499.00
2022-12-18T23:22:05.040Z,102494.00
2022-12-18T23:24:33.837Z,102480.00
2022-12-18T23:27:20.085Z,102488.00
2022-12-18T23:29:47.687Z,102481.00
2022-12-18T23:32:16.765Z,102478.00
2022-12-18T23:34:43.988Z,102480.00
2022-12-18T23:37:10.654Z,102477.00
2022-12-18T23:39:37.406Z,102481.00
2022-12-18T23:42:04.199Z,102457.00
2022-12-18T23:44:32.106Z,102450.00
2022-12-18T23:46:58.861Z,102461.00
2022-12-18T23:49:25.412Z,102462.00
2022-12-18T23:51:54.113Z,102463.00
2022-12-18T23:54:31.406Z,102452.00
2022-12-18T23:57:00.092Z,102446.00
2022-12-18T23:59:27.325Z,102434.00
